Time;durP1;ratioP1;P1;durP2;ratioP2;P2;SDS_P1;SDS_P2;PMS_P1;PMS_P2;Temp;Humidity;BMP_temperature;BMP_pressure;BME280_temperature;BME280_humidity;BME280_pressure;Samples;Min_cycle;Max_cycle;Signal;HPM_P1;HPM_P2
2022/08/09 00:01:54;;;;;;;6.70;2.77;;;21.40;81.40;;;;;;5096269;28;20457;-57
2022/08/09 00:04:21;;;;;;;3.17;2.30;;;21.40;82.00;;;;;;5095818;28;20453;-55
2022/08/09 00:06:48;;;;;;;4.23;2.87;;;21.50;82.50;;;;;;5095749;28;20442;-57
2022/08/09 00:09:16;;;;;;;3.00;2.70;;;21.50;82.90;;;;;;5095559;28;20456;-57
2022/08/09 00:11:45;;;;;;;6.57;2.60;;;21.50;83.30;;;;;;5096040;28;20898;-58
2022/08/09 00:14:13;;;;;;;4.10;3.40;;;21.50;83.50;;;;;;5095702;28;20477;-55
2022/08/09 00:16:40;;;;;;;3.17;2.73;;;21.50;83.60;;;;;;5095754;28;20496;-57
2022/08/09 00:19:08;;;;;;;4.33;3.17;;;21.50;84.90;;;;;;5095868;28;20445;-58
2022/08/09 00:21:34;;;;;;;3.70;2.90;;;21.50;84.60;;;;;;5095658;28;20466;-58
2022/08/09 00:24:02;;;;;;;4.73;3.00;;;21.60;84.90;;;;;;5095967;28;20453;-58
2022/08/09 00:26:30;;;;;;;3.70;2.80;;;21.60;85.30;;;;;;5095492;28;20445;-56
2022/08/09 00:28:58;;;;;;;4.07;3.17;;;21.60;85.70;;;;;;5095794;28;20430;-57
2022/08/09 00:31:26;;;;;;;5.90;3.40;;;21.60;85.80;;;;;;5095625;28;20441;-56
2022/08/09 00:33:54;;;;;;;3.60;2.77;;;21.60;86.30;;;;;;5095919;28;20854;-55
2022/08/09 00:36:22;;;;;;;5.07;3.20;;;21.60;86.50;;;;;;5098070;28;20449;-57
2022/08/09 00:38:49;;;;;;;4.43;3.57;;;21.60;86.80;;;;;;5098988;28;20461;-57
2022/08/09 00:41:17;;;;;;;4.13;2.90;;;21.60;87.20;;;;;;5081730;28;20575;-56
2022/08/09 00:43:44;;;;;;;4.53;3.20;;;21.60;87.30;;;;;;5098992;28;20469;-58
2022/08/09 00:46:12;;;;;;;5.00;3.23;;;21.60;87.60;;;;;;5099233;28;20471;-58
2022/08/09 00:48:39;;;;;;;4.00;3.10;;;21.60;88.10;;;;;;5099353;28;20461;-58
2022/08/09 00:51:06;;;;;;;4.30;2.90;;;21.60;88.30;;;;;;5099278;28;20425;-55
2022/08/09 00:53:34;;;;;;;6.10;3.30;;;21.60;88.70;;;;;;5098812;28;20953;-58
2022/08/09 00:56:01;;;;;;;5.57;3.13;;;21.60;88.80;;;;;;5099264;28;20851;-58
2022/08/09 00:58:30;;;;;;;3.73;2.60;;;21.60;89.80;;;;;;5099230;28;20459;-53
2022/08/09 01:00:57;;;;;;;4.30;2.83;;;21.60;89.20;;;;;;5099198;28;20590;-52
2022/08/09 01:03:33;;;;;;;3.50;2.77;;;21.60;89.10;;;;;;5098691;28;20441;-56
2022/08/09 01:06:05;;;;;;;4.83;2.90;;;21.60;89.80;;;;;;5098738;28;20472;-58
2022/08/09 01:08:42;;;;;;;4.70;2.40;;;21.60;90.00;;;;;;5098924;28;20717;-57
2022/08/09 01:11:18;;;;;;;10.10;3.77;;;21.60;90.10;;;;;;5098322;28;20472;-53
2022/08/09 01:13:50;;;;;;;4.57;2.87;;;21.60;90.20;;;;;;5098308;28;20546;-57
2022/08/09 01:16:20;;;;;;;3.80;2.73;;;21.60;90.70;;;;;;5098515;28;20438;-58
2022/08/09 01:18:51;;;;;;;4.90;2.90;;;21.60;90.50;;;;;;5098538;28;20438;-56
2022/08/09 01:21:27;;;;;;;4.00;2.97;;;21.60;90.60;;;;;;5098329;28;20472;-56
2022/08/09 01:23:59;;;;;;;4.20;2.87;;;21.60;90.80;;;;;;5097643;28;20472;-56
2022/08/09 01:26:52;;;;;;;4.07;2.83;;;21.50;90.70;;;;;;5098624;28;20731;-55
2022/08/09 01:29:25;;;;;;;4.03;2.87;;;21.60;91.00;;;;;;5098576;28;20889;-53
2022/08/09 01:31:53;;;;;;;4.07;2.77;;;21.50;91.10;;;;;;5098207;28;20442;-57
2022/08/09 01:34:22;;;;;;;4.57;3.50;;;21.50;91.10;;;;;;5098737;28;20579;-55
2022/08/09 01:36:50;;;;;;;3.23;2.87;;;21.50;91.50;;;;;;5097826;28;20480;-51
2022/08/09 01:39:17;;;;;;;5.40;3.07;;;21.50;91.70;;;;;;5098265;28;20461;-57
2022/08/09 01:41:47;;;;;;;6.00;2.63;;;21.50;91.90;;;;;;5098317;28;20453;-54
2022/08/09 01:44:16;;;;;;;3.40;2.63;;;21.50;91.90;;;;;;5099963;28;20446;-51
2022/08/09 01:46:45;;;;;;;7.17;2.93;;;21.50;92.20;;;;;;5098900;28;20436;-57
2022/08/09 01:49:15;;;;;;;6.83;3.30;;;21.50;92.30;;;;;;5098425;28;20910;-53
2022/08/09 01:51:44;;;;;;;4.70;2.97;;;21.50;92.50;;;;;;5097750;28;20920;-55
2022/08/09 01:54:13;;;;;;;7.50;3.07;;;21.40;92.40;;;;;;5097632;28;20596;-57
2022/08/09 01:56:42;;;;;;;3.43;2.60;;;21.40;92.70;;;;;;5099340;28;20480;-58
2022/08/09 01:59:13;;;;;;;4.43;3.00;;;21.40;93.00;;;;;;5099501;28;20540;-58
2022/08/09 02:01:42;;;;;;;3.37;3.07;;;21.30;93.20;;;;;;5099038;28;20480;-56
2022/08/09 02:04:10;;;;;;;3.70;2.77;;;21.30;93.50;;;;;;5098261;28;20485;-58
2022/08/09 02:09:41;;;;;;;6.27;2.53;;;21.20;94.20;;;;;;5054735;28;20431;-57
2022/08/09 02:12:11;;;;;;;8.10;3.13;;;21.10;94.50;;;;;;5055431;28;20467;-55
2022/08/09 02:14:42;;;;;;;3.40;3.10;;;21.10;95.00;;;;;;5075571;28;20499;-57
2022/08/09 02:17:10;;;;;;;3.70;2.70;;;21.10;95.20;;;;;;5097442;28;20901;-57
2022/08/09 02:19:37;;;;;;;4.97;3.10;;;21.10;95.40;;;;;;5097579;28;20445;-52
2022/08/09 02:22:09;;;;;;;6.33;3.63;;;21.10;95.70;;;;;;5096938;28;20457;-53
2022/08/09 02:24:39;;;;;;;9.47;4.00;;;21.10;95.80;;;;;;5097333;28;20461;-52
2022/08/09 02:27:10;;;;;;;5.60;2.90;;;21.10;95.70;;;;;;5097393;28;20448;-58
2022/08/09 02:29:44;;;;;;;3.23;2.90;;;21.10;95.80;;;;;;5097489;28;20462;-58
2022/08/09 02:32:12;;;;;;;6.23;2.50;;;21.10;96.00;;;;;;5097227;28;20437;-53
2022/08/09 02:34:42;;;;;;;4.97;3.37;;;21.10;96.10;;;;;;5097088;28;20489;-56
2022/08/09 02:37:14;;;;;;;4.90;3.40;;;21.20;96.10;;;;;;5096863;28;20453;-58
2022/08/09 02:39:48;;;;;;;5.23;3.27;;;21.20;96.20;;;;;;5097078;28;20441;-52
2022/08/09 02:42:18;;;;;;;4.63;3.30;;;21.10;96.40;;;;;;5096923;28;20432;-56
2022/08/09 02:44:50;;;;;;;4.23;2.40;;;21.10;96.70;;;;;;5096878;28;20425;-54
2022/08/09 02:47:19;;;;;;;4.70;3.00;;;21.10;96.90;;;;;;5097154;28;20883;-57
2022/08/09 02:50:08;;;;;;;5.90;3.00;;;21.10;97.00;;;;;;5097445;28;20449;-52
2022/08/09 02:52:40;;;;;;;6.40;3.87;;;21.10;97.00;;;;;;5096884;28;21083;-57
2022/08/09 02:55:09;;;;;;;3.40;3.10;;;21.10;97.10;;;;;;5097003;28;20495;-50
2022/08/09 02:57:38;;;;;;;11.23;4.03;;;21.10;97.40;;;;;;5096723;28;20465;-56
2022/08/09 03:00:09;;;;;;;3.87;3.40;;;21.10;97.60;;;;;;5096746;28;20441;-56
2022/08/09 03:02:38;;;;;;;5.00;3.67;;;21.10;97.70;;;;;;5096851;28;20469;-57
2022/08/09 03:05:06;;;;;;;3.70;3.20;;;21.10;97.90;;;;;;5096745;28;20463;-57
2022/08/09 03:07:34;;;;;;;4.53;3.30;;;21.10;97.90;;;;;;5096307;28;20452;-55
2022/08/09 03:10:02;;;;;;;4.23;3.50;;;21.10;98.00;;;;;;5096478;28;20525;-56
2022/08/09 03:12:30;;;;;;;3.50;2.97;;;21.10;98.60;;;;;;5096359;28;20459;-57
2022/08/09 03:14:58;;;;;;;3.07;2.77;;;21.00;98.40;;;;;;5096163;28;20477;-54
2022/08/09 03:17:27;;;;;;;4.03;2.90;;;21.00;98.60;;;;;;5096923;28;20445;-57
2022/08/09 03:19:58;;;;;;;5.33;3.57;;;21.00;98.70;;;;;;5096061;28;20483;-57
2022/08/09 03:22:27;;;;;;;4.83;3.80;;;21.00;99.00;;;;;;5096313;28;20451;-57
2022/08/09 03:24:54;;;;;;;3.40;3.10;;;21.00;99.10;;;;;;5096720;28;20461;-57
2022/08/09 03:27:22;;;;;;;6.23;3.03;;;21.00;99.40;;;;;;5096255;28;20458;-54
2022/08/09 03:29:49;;;;;;;3.73;3.43;;;21.00;99.60;;;;;;5096266;28;20461;-57
2022/08/09 03:32:18;;;;;;;5.13;4.27;;;21.00;99.90;;;;;;5096000;28;20434;-58
2022/08/09 03:34:47;;;;;;;6.13;3.30;;;21.00;99.80;;;;;;5096265;28;20481;-55
2022/08/09 03:37:14;;;;;;;3.27;2.83;;;21.00;99.90;;;;;;5095964;28;20441;-58
2022/08/09 03:39:41;;;;;;;4.20;3.10;;;20.90;99.90;;;;;;5096245;28;20930;-59
2022/08/09 03:42:08;;;;;;;3.73;2.93;;;20.90;99.90;;;;;;5096032;28;20476;-58
2022/08/09 03:44:35;;;;;;;4.53;3.17;;;20.90;99.90;;;;;;5096397;28;20434;-58
2022/08/09 03:47:01;;;;;;;3.37;2.83;;;20.90;99.90;;;;;;5095741;28;20480;-57
2022/08/09 03:49:29;;;;;;;11.00;3.60;;;20.90;99.90;;;;;;5096198;28;20473;-58
2022/08/09 03:52:00;;;;;;;3.03;2.67;;;20.90;99.90;;;;;;5095829;28;20520;-58
2022/08/09 03:54:31;;;;;;;4.73;3.43;;;20.90;99.90;;;;;;5097510;28;20473;-58
2022/08/09 03:56:59;;;;;;;4.30;3.17;;;20.90;99.90;;;;;;5096303;28;20426;-58
2022/08/09 03:59:27;;;;;;;6.53;3.93;;;20.90;99.90;;;;;;5096125;28;20445;-58
2022/08/09 04:01:56;;;;;;;3.53;2.97;;;20.90;99.90;;;;;;5096290;28;20465;-58
2022/08/09 04:04:24;;;;;;;4.90;3.70;;;20.90;99.90;;;;;;5096210;28;20465;-56
2022/08/09 04:06:50;;;;;;;4.20;3.37;;;20.90;99.90;;;;;;5096169;28;20445;-57
2022/08/09 04:09:19;;;;;;;5.30;3.87;;;20.90;99.90;;;;;;5095859;28;20465;-57
2022/08/09 04:12:01;;;;;;;4.47;3.63;;;20.90;99.90;;;;;;5098883;28;20461;-58
2022/08/09 04:14:27;;;;;;;4.10;3.70;;;20.90;99.90;;;;;;5099910;28;20941;-56
2022/08/09 04:16:54;;;;;;;5.00;3.83;;;20.90;99.90;;;;;;5099721;28;20754;-58
2022/08/09 04:19:22;;;;;;;4.57;3.87;;;20.90;99.90;;;;;;5100142;28;20445;-58
2022/08/09 04:21:48;;;;;;;4.70;2.90;;;20.90;99.90;;;;;;5099734;28;20898;-58
2022/08/09 04:24:16;;;;;;;3.50;3.20;;;20.90;99.90;;;;;;5101303;28;20437;-58
2022/08/09 04:26:44;;;;;;;13.30;3.97;;;20.90;99.90;;;;;;5101197;28;20473;-56
2022/08/09 04:29:11;;;;;;;6.63;3.83;;;21.00;99.90;;;;;;5100318;28;20463;-57
2022/08/09 04:31:38;;;;;;;8.00;3.70;;;21.00;99.90;;;;;;5099353;28;20499;-56
2022/08/09 04:34:04;;;;;;;4.97;3.73;;;21.00;99.90;;;;;;5099722;28;20481;-56
2022/08/09 04:36:32;;;;;;;3.97;3.43;;;21.00;99.90;;;;;;5099454;28;20536;-56
2022/08/09 04:39:01;;;;;;;7.67;3.53;;;21.00;99.90;;;;;;5099399;28;20437;-55
2022/08/09 04:41:29;;;;;;;10.00;4.50;;;20.90;99.90;;;;;;5100559;28;20532;-55
2022/08/09 04:43:57;;;;;;;17.17;5.53;;;20.90;99.90;;;;;;5101426;28;20816;-58
2022/08/09 04:46:24;;;;;;;18.60;6.07;;;20.90;99.90;;;;;;5100852;28;20465;-61
2022/08/09 04:48:51;;;;;;;18.63;5.57;;;20.90;99.90;;;;;;5099959;28;20492;-59
2022/08/09 04:51:18;;;;;;;13.23;5.10;;;20.90;99.90;;;;;;5099307;28;20446;-58
2022/08/09 04:53:44;;;;;;;13.13;5.03;;;20.90;99.90;;;;;;5099376;28;20495;-58
2022/08/09 04:56:11;;;;;;;31.73;6.40;;;21.00;99.90;;;;;;5099310;28;20458;-56
2022/08/09 04:58:38;;;;;;;18.20;3.63;;;21.00;99.90;;;;;;5099204;28;20532;-51
2022/08/09 05:01:06;;;;;;;12.60;4.10;;;21.00;99.90;;;;;;5099449;28;20881;-59
2022/08/09 05:03:33;;;;;;;6.17;3.40;;;21.00;99.90;;;;;;5098899;28;20461;-57
2022/08/09 05:06:00;;;;;;;5.90;4.57;;;21.00;99.90;;;;;;5098539;28;20472;-57
2022/08/09 05:08:27;;;;;;;4.03;3.67;;;21.00;99.90;;;;;;5098842;28;20483;-53
2022/08/09 05:10:54;;;;;;;4.30;3.43;;;21.10;99.90;;;;;;5098846;28;20576;-59
2022/08/09 05:13:20;;;;;;;5.10;3.73;;;21.10;99.90;;;;;;5098682;28;20452;-56
2022/08/09 05:15:47;;;;;;;4.17;3.10;;;21.10;99.90;;;;;;5098276;28;20484;-53
2022/08/09 05:18:15;;;;;;;4.67;3.60;;;21.20;99.90;;;;;;5099009;28;20440;-58
2022/08/09 05:20:42;;;;;;;5.53;3.70;;;21.20;99.90;;;;;;5098657;28;20511;-56
2022/08/09 05:23:09;;;;;;;4.87;3.90;;;21.20;99.90;;;;;;5098607;28;20422;-54
2022/08/09 05:25:36;;;;;;;6.30;3.43;;;21.20;99.90;;;;;;5098514;28;20442;-54
2022/08/09 05:28:03;;;;;;;5.23;4.03;;;21.20;99.90;;;;;;5098383;28;20499;-58
2022/08/09 05:30:30;;;;;;;5.93;4.67;;;21.20;99.90;;;;;;5094362;28;20468;-57
2022/08/09 05:32:56;;;;;;;14.57;4.20;;;21.30;99.90;;;;;;5096659;28;20501;-54
2022/08/09 05:35:25;;;;;;;8.13;4.67;;;21.30;99.90;;;;;;5096595;28;20481;-58
2022/08/09 05:37:52;;;;;;;8.30;4.57;;;21.40;99.90;;;;;;5096429;28;20981;-56
2022/08/09 05:40:18;;;;;;;5.20;4.17;;;21.40;99.90;;;;;;5096579;28;20480;-61
2022/08/09 05:42:45;;;;;;;10.00;4.13;;;21.50;99.90;;;;;;5096468;28;20452;-59
2022/08/09 05:45:12;;;;;;;6.27;3.80;;;21.60;99.90;;;;;;5096734;28;20847;-60
2022/08/09 05:47:39;;;;;;;6.23;3.70;;;21.60;99.90;;;;;;5096570;28;20452;-57
2022/08/09 05:50:08;;;;;;;6.40;4.70;;;21.60;99.90;;;;;;5096357;28;20461;-57
2022/08/09 05:52:36;;;;;;;4.67;3.70;;;21.70;99.90;;;;;;5096435;28;20434;-55
2022/08/09 05:55:03;;;;;;;5.80;3.70;;;21.70;99.90;;;;;;5096131;28;20484;-59
2022/08/09 05:57:30;;;;;;;7.07;3.73;;;21.70;99.90;;;;;;5096434;28;20446;-59
2022/08/09 05:59:57;;;;;;;6.33;4.00;;;21.80;99.90;;;;;;5095716;28;20469;-59
2022/08/09 06:02:23;;;;;;;5.03;4.10;;;21.90;99.90;;;;;;5095969;28;20426;-53
2022/08/09 06:04:50;;;;;;;8.70;4.40;;;21.90;99.90;;;;;;5097862;28;20460;-51
2022/08/09 06:07:17;;;;;;;4.00;3.60;;;22.00;99.90;;;;;;5095620;28;20466;-56
2022/08/09 06:09:45;;;;;;;8.77;5.27;;;22.10;99.90;;;;;;5095497;28;20441;-53
2022/08/09 06:12:12;;;;;;;6.03;3.70;;;22.10;99.90;;;;;;5094506;28;20461;-57
2022/08/09 06:14:39;;;;;;;5.80;4.07;;;22.20;99.90;;;;;;5095460;28;20484;-53
2022/08/09 06:17:06;;;;;;;5.60;4.00;;;22.20;99.90;;;;;;5095286;28;20474;-55
2022/08/09 06:19:33;;;;;;;4.13;3.70;;;22.20;99.90;;;;;;5095735;28;20437;-58
2022/08/09 06:22:00;;;;;;;8.30;5.10;;;22.20;99.90;;;;;;5095706;28;20514;-60
2022/08/09 06:24:27;;;;;;;4.67;4.20;;;22.20;99.90;;;;;;5095844;28;20472;-58
2022/08/09 06:26:55;;;;;;;5.83;3.53;;;22.20;99.90;;;;;;5095727;28;20441;-59
2022/08/09 06:29:22;;;;;;;10.97;3.90;;;22.30;99.90;;;;;;5095291;28;20481;-60
2022/08/09 06:31:48;;;;;;;6.37;3.90;;;22.30;99.90;;;;;;5094713;28;20440;-55
2022/08/09 06:34:15;;;;;;;9.50;4.40;;;22.30;99.90;;;;;;5094616;28;20530;-57
2022/08/09 06:36:42;;;;;;;5.13;4.63;;;22.40;99.90;;;;;;5095675;28;20453;-59
2022/08/09 06:39:11;;;;;;;5.27;3.60;;;22.30;99.80;;;;;;5095504;28;20475;-58
2022/08/09 06:41:38;;;;;;;8.30;3.90;;;22.30;99.50;;;;;;5095627;28;20925;-57
2022/08/09 06:44:06;;;;;;;8.73;4.03;;;22.40;99.50;;;;;;5095712;28;20552;-58
2022/08/09 06:46:33;;;;;;;8.90;4.40;;;22.40;99.40;;;;;;5095665;28;20921;-58
2022/08/09 06:49:00;;;;;;;5.17;3.47;;;22.40;99.20;;;;;;5095557;28;20462;-58
2022/08/09 06:51:27;;;;;;;4.87;4.37;;;22.40;99.20;;;;;;5095559;28;20757;-59
2022/08/09 06:53:53;;;;;;;7.07;3.90;;;22.50;99.10;;;;;;5095319;28;20445;-51
2022/08/09 06:56:20;;;;;;;5.83;3.87;;;22.50;98.70;;;;;;5095270;28;20465;-55
2022/08/09 06:58:47;;;;;;;7.70;3.90;;;22.70;98.70;;;;;;5095476;28;20441;-52
2022/08/09 07:01:15;;;;;;;8.10;3.57;;;22.70;98.50;;;;;;5095485;28;20446;-59
2022/08/09 07:03:42;;;;;;;6.93;4.63;;;22.80;98.10;;;;;;5095380;28;20453;-58
2022/08/09 07:06:09;;;;;;;4.63;3.57;;;22.90;98.80;;;;;;5095190;28;20464;-56
2022/08/09 07:08:36;;;;;;;4.73;3.33;;;23.00;98.10;;;;;;5095371;28;20445;-53
2022/08/09 07:11:03;;;;;;;6.30;3.73;;;23.10;98.20;;;;;;5095417;28;20771;-59
2022/08/09 07:13:30;;;;;;;9.90;4.27;;;23.10;97.70;;;;;;5095868;28;20458;-61
2022/08/09 07:15:57;;;;;;;5.73;3.90;;;23.30;97.70;;;;;;5095811;28;20477;-63
2022/08/09 07:18:25;;;;;;;16.13;5.60;;;23.40;97.00;;;;;;5095412;28;20902;-59
2022/08/09 07:20:52;;;;;;;8.00;4.57;;;23.60;96.70;;;;;;5095069;28;20497;-58
2022/08/09 07:23:19;;;;;;;7.40;3.87;;;23.70;96.60;;;;;;5095088;28;20534;-56
2022/08/09 07:25:46;;;;;;;8.27;3.40;;;23.90;96.20;;;;;;5094973;28;20494;-58
2022/08/09 07:28:13;;;;;;;5.33;3.47;;;24.00;95.00;;;;;;5094787;28;20448;-56
2022/08/09 07:30:40;;;;;;;3.73;2.90;;;24.20;94.80;;;;;;5094938;28;20469;-52
2022/08/09 07:33:07;;;;;;;7.53;4.63;;;24.30;94.60;;;;;;5095086;28;20448;-59
2022/08/09 07:35:35;;;;;;;5.60;4.03;;;24.40;93.40;;;;;;5094390;28;20585;-59
2022/08/09 07:38:02;;;;;;;7.90;4.57;;;24.40;92.60;;;;;;5094983;28;20445;-58
2022/08/09 07:40:28;;;;;;;7.30;3.70;;;24.50;91.80;;;;;;5094556;28;20468;-55
2022/08/09 07:42:57;;;;;;;6.77;3.73;;;24.50;91.60;;;;;;5094940;28;20450;-59
2022/08/09 07:45:27;;;;;;;4.57;3.07;;;24.50;91.30;;;;;;5097487;28;20461;-59
2022/08/09 07:47:55;;;;;;;5.63;3.70;;;24.50;90.90;;;;;;5098922;28;20464;-59
2022/08/09 07:50:24;;;;;;;4.33;2.90;;;24.50;90.80;;;;;;5098861;28;20580;-57
2022/08/09 07:52:53;;;;;;;3.30;3.00;;;24.60;90.40;;;;;;5098994;28;20471;-59
2022/08/09 07:55:20;;;;;;;3.90;2.90;;;25.30;89.90;;;;;;5098561;28;20595;-58
2022/08/09 07:57:47;;;;;;;4.20;2.93;;;26.70;83.30;;;;;;5098814;28;20548;-59
2022/08/09 08:00:16;;;;;;;3.20;2.93;;;28.30;76.00;;;;;;5099230;28;20505;-59
2022/08/09 08:02:43;;;;;;;4.17;3.33;;;29.80;68.60;;;;;;5099633;28;20445;-62
2022/08/09 08:05:11;;;;;;;3.50;3.20;;;31.30;63.10;;;;;;5099675;28;20465;-60
2022/08/09 08:07:38;;;;;;;6.30;3.10;;;32.80;56.90;;;;;;5099767;28;20449;-62
2022/08/09 08:10:07;;;;;;;4.90;3.30;;;34.00;53.90;;;;;;5099058;28;20488;-59
2022/08/09 08:12:34;;;;;;;5.40;3.80;;;35.30;49.10;;;;;;5098402;28;20461;-58
2022/08/09 08:15:01;;;;;;;4.17;2.87;;;35.80;47.40;;;;;;5098244;28;20480;-56
2022/08/09 08:17:28;;;;;;;3.47;3.17;;;36.60;45.50;;;;;;5098429;28;20434;-53
2022/08/09 08:19:54;;;;;;;4.57;3.20;;;37.30;43.60;;;;;;5098391;28;20479;-58
2022/08/09 08:22:21;;;;;;;3.30;3.00;;;37.60;42.50;;;;;;5098280;28;20437;-58
2022/08/09 08:24:54;;;;;;;3.27;2.97;;;38.00;41.20;;;;;;5098106;28;20456;-58
2022/08/09 08:27:23;;;;;;;7.53;3.57;;;38.50;40.20;;;;;;5098370;28;20437;-58
2022/08/09 08:29:50;;;;;;;5.33;3.03;;;39.00;39.40;;;;;;5098082;28;20506;-58
2022/08/09 08:32:17;;;;;;;4.17;2.93;;;39.30;38.30;;;;;;5097837;28;20438;-56
2022/08/09 08:34:44;;;;;;;3.20;2.90;;;38.80;37.80;;;;;;5097717;28;20444;-58
2022/08/09 08:37:11;;;;;;;5.93;3.40;;;37.80;38.60;;;;;;5097721;28;20917;-55
2022/08/09 08:39:38;;;;;;;5.10;2.60;;;36.90;39.40;;;;;;5097687;28;20453;-53
2022/08/09 08:42:05;;;;;;;3.63;3.10;;;36.60;40.00;;;;;;5097713;28;20441;-58
2022/08/09 08:44:36;;;;;;;3.20;2.90;;;36.80;39.70;;;;;;5097515;28;20441;-57
2022/08/09 08:47:04;;;;;;;5.13;2.80;;;37.10;39.20;;;;;;5097471;28;20441;-58
2022/08/09 08:49:32;;;;;;;3.10;2.60;;;37.20;39.00;;;;;;5097426;28;20457;-59
2022/08/09 08:51:59;;;;;;;3.63;3.20;;;37.40;38.60;;;;;;5097518;28;20445;-58
2022/08/09 08:54:26;;;;;;;3.63;2.80;;;37.40;38.70;;;;;;5097495;28;20448;-59
2022/08/09 08:56:54;;;;;;;2.63;2.33;;;37.40;38.20;;;;;;5096512;28;20473;-58
2022/08/09 08:59:21;;;;;;;4.83;3.13;;;37.60;38.20;;;;;;5097310;28;20453;-56
2022/08/09 09:01:51;;;;;;;4.83;3.37;;;37.70;37.90;;;;;;5097163;28;20442;-58
2022/08/09 09:04:19;;;;;;;3.37;3.07;;;37.70;37.60;;;;;;5097237;28;20957;-58
2022/08/09 09:06:49;;;;;;;3.97;2.80;;;37.70;37.30;;;;;;5098335;28;20465;-60
2022/08/09 09:09:20;;;;;;;5.27;3.30;;;37.80;37.30;;;;;;5098768;28;20996;-54
2022/08/09 09:11:47;;;;;;;4.67;2.80;;;38.10;36.90;;;;;;5097591;28;20461;-58
2022/08/09 09:14:17;;;;;;;3.07;2.37;;;38.20;37.00;;;;;;5098588;28;20776;-58
2022/08/09 09:16:44;;;;;;;4.70;2.70;;;38.40;37.50;;;;;;5097786;28;20484;-57
2022/08/09 09:19:13;;;;;;;5.27;3.00;;;38.60;36.60;;;;;;5097505;28;20777;-61
2022/08/09 09:22:02;;;;;;;3.80;3.50;;;38.60;36.40;;;;;;5097225;28;20441;-60
2022/08/09 09:24:31;;;;;;;4.27;2.87;;;38.60;36.00;;;;;;5097270;28;20430;-58
2022/08/09 09:27:00;;;;;;;3.17;2.87;;;38.70;36.00;;;;;;5097142;28;20442;-58
2022/08/09 09:29:32;;;;;;;3.27;2.93;;;38.70;35.80;;;;;;5097266;28;20438;-60
2022/08/09 09:31:59;;;;;;;3.57;3.27;;;38.70;35.70;;;;;;5097144;28;20460;-61
2022/08/09 09:34:28;;;;;;;4.17;2.83;;;38.60;36.20;;;;;;5098687;28;20783;-61
2022/08/09 09:36:56;;;;;;;6.97;3.37;;;38.40;36.10;;;;;;5097437;28;20821;-59
2022/08/09 09:39:25;;;;;;;3.43;3.13;;;38.30;36.20;;;;;;5096703;28;20457;-60
2022/08/09 09:41:52;;;;;;;7.13;2.97;;;38.10;36.00;;;;;;5096361;28;20477;-59
2022/08/09 09:44:25;;;;;;;4.07;3.23;;;37.90;36.50;;;;;;5096854;28;20445;-58
2022/08/09 09:46:57;;;;;;;6.80;3.20;;;37.90;36.20;;;;;;5096474;28;20473;-59
2022/08/09 09:49:25;;;;;;;3.20;2.90;;;37.90;36.40;;;;;;5096680;28;20434;-58
2022/08/09 09:52:03;;;;;;;5.10;3.63;;;38.10;36.50;;;;;;5096207;28;20512;-58
2022/08/09 09:54:38;;;;;;;3.50;3.20;;;38.30;36.00;;;;;;5096728;28;20885;-59
2022/08/09 09:57:17;;;;;;;3.63;2.73;;;38.40;35.40;;;;;;5096243;28;20516;-59
2022/08/09 09:59:45;;;;;;;3.80;3.07;;;38.50;35.00;;;;;;5096516;28;20477;-57
2022/08/09 10:02:13;;;;;;;3.10;2.80;;;38.50;35.00;;;;;;5097214;28;20945;-61
2022/08/09 10:04:41;;;;;;;5.70;3.00;;;38.40;34.50;;;;;;5096811;28;20445;-54
2022/08/09 10:07:24;;;;;;;3.70;2.90;;;38.20;34.60;;;;;;5095908;28;20442;-58
2022/08/09 10:09:52;;;;;;;4.70;4.30;;;38.00;35.30;;;;;;5095950;28;20434;-58
2022/08/09 10:12:29;;;;;;;6.33;3.03;;;37.90;35.40;;;;;;5096223;28;21035;-53
2022/08/09 10:15:10;;;;;;;4.40;2.77;;;37.90;35.30;;;;;;5095907;28;20453;-55
2022/08/09 10:17:38;;;;;;;2.90;2.60;;;37.90;35.20;;;;;;5095908;28;20413;-58
2022/08/09 10:20:22;;;;;;;2.80;2.57;;;37.70;35.30;;;;;;5095996;28;20446;-55
2022/08/09 10:22:54;;;;;;;4.33;3.33;;;37.60;35.40;;;;;;5095796;28;20772;-58
2022/08/09 10:25:22;;;;;;;3.80;3.00;;;37.50;35.50;;;;;;5095667;28;20426;-58
2022/08/09 10:27:49;;;;;;;7.07;2.60;;;37.50;35.60;;;;;;5095652;28;20643;-58
2022/08/09 10:30:17;;;;;;;4.30;2.97;;;37.50;35.70;;;;;;5095771;28;20481;-59
2022/08/09 10:32:45;;;;;;;5.00;4.13;;;37.10;35.60;;;;;;5097629;28;20437;-58
2022/08/09 10:35:13;;;;;;;3.50;2.80;;;36.80;36.10;;;;;;5096525;28;20437;-55
2022/08/09 10:37:40;;;;;;;2.73;2.53;;;36.70;36.60;;;;;;5096206;28;20461;-58
2022/08/09 10:40:11;;;;;;;3.60;3.30;;;36.60;36.60;;;;;;5096096;28;20471;-59
2022/08/09 10:42:38;;;;;;;3.77;3.23;;;36.60;36.80;;;;;;5096024;28;20426;-60
2022/08/09 10:45:08;;;;;;;3.63;3.30;;;36.60;36.50;;;;;;5095980;28;20483;-59
2022/08/09 10:48:03;;;;;;;3.73;3.43;;;36.30;37.10;;;;;;5095443;28;20508;-59
2022/08/09 10:53:28;;;;;;;3.23;2.83;;;35.50;37.60;;;;;;5094281;28;20739;-60
2022/08/09 10:56:18;;;;;;;4.47;3.73;;;34.60;38.40;;;;;;5095329;28;20501;-56
2022/08/09 10:58:45;;;;;;;3.87;3.07;;;33.80;39.70;;;;;;5095818;28;21017;-56
2022/08/09 11:01:41;;;;;;;7.50;4.03;;;33.10;40.80;;;;;;5096210;28;20518;-62
2022/08/09 11:04:20;;;;;;;4.57;3.70;;;32.80;41.80;;;;;;5095336;28;20994;-55
2022/08/09 11:06:48;;;;;;;5.60;3.20;;;32.80;41.40;;;;;;5095147;28;20979;-58
2022/08/09 11:09:18;;;;;;;3.40;3.10;;;32.80;41.40;;;;;;5095094;28;20537;-59
2022/08/09 11:12:12;;;;;;;4.80;3.40;;;32.80;42.00;;;;;;5094683;28;20465;-58
2022/08/09 11:14:43;;;;;;;3.53;2.90;;;32.80;41.50;;;;;;5095113;28;20437;-59
2022/08/09 11:17:51;;;;;;;4.63;2.70;;;32.60;41.30;;;;;;5095065;28;20525;-63
2022/08/09 11:20:21;;;;;;;2.73;2.53;;;32.50;42.00;;;;;;5094987;28;20884;-58
2022/08/09 11:23:01;;;;;;;4.20;3.13;;;32.40;41.90;;;;;;5095225;28;20910;-58
2022/08/09 11:25:43;;;;;;;3.77;2.97;;;32.40;42.50;;;;;;5096221;28;20437;-60
2022/08/09 11:28:38;;;;;;;3.53;3.20;;;32.30;42.20;;;;;;5096883;28;20466;-58
2022/08/09 11:31:39;;;;;;;2.93;2.63;;;32.30;42.50;;;;;;5077130;28;20540;-59
2022/08/09 11:34:10;;;;;;;5.10;2.87;;;32.20;42.60;;;;;;5088837;28;20454;-60
2022/08/09 11:36:41;;;;;;;4.67;3.20;;;31.90;42.70;;;;;;5094653;28;20485;-56
2022/08/09 11:39:08;;;;;;;2.70;2.50;;;31.50;42.10;;;;;;5094957;28;20433;-58
2022/08/09 11:41:35;;;;;;;3.97;3.57;;;31.30;42.90;;;;;;5094373;28;20480;-59
2022/08/09 11:44:04;;;;;;;4.03;2.97;;;31.20;42.90;;;;;;5096754;28;20898;-59
2022/08/09 11:46:52;;;;;;;4.07;2.97;;;31.20;43.60;;;;;;5095800;28;20466;-59
2022/08/09 11:49:39;;;;;;;3.40;3.10;;;31.20;43.10;;;;;;5094859;28;20484;-58
2022/08/09 11:52:06;;;;;;;4.00;3.60;;;31.10;42.20;;;;;;5094322;28;20824;-59
2022/08/09 11:54:33;;;;;;;4.60;2.90;;;31.00;42.80;;;;;;5094769;28;20477;-59
2022/08/09 11:57:38;;;;;;;4.07;3.20;;;31.00;43.60;;;;;;5095226;28;20523;-58
2022/08/09 12:00:09;;;;;;;2.50;2.30;;;30.90;43.10;;;;;;5094658;28;20509;-55
2022/08/09 12:02:38;;;;;;;8.50;2.93;;;30.90;43.50;;;;;;5094443;28;20454;-57
2022/08/09 12:05:06;;;;;;;2.70;2.40;;;30.60;43.60;;;;;;5094747;28;20451;-57
2022/08/09 12:07:33;;;;;;;4.10;2.90;;;30.30;43.50;;;;;;5094573;28;20934;-58
2022/08/09 12:10:01;;;;;;;4.40;2.93;;;29.90;43.90;;;;;;5094424;28;20453;-58
2022/08/09 12:12:27;;;;;;;3.63;3.10;;;29.60;44.80;;;;;;5094312;28;20988;-60
2022/08/09 12:14:54;;;;;;;3.43;2.97;;;29.50;45.30;;;;;;5094277;28;20456;-60
2022/08/09 12:17:23;;;;;;;4.43;2.73;;;29.30;45.80;;;;;;5094533;28;20976;-61
2022/08/09 12:19:49;;;;;;;3.10;2.90;;;29.20;45.80;;;;;;5094891;28;20555;-59
2022/08/09 12:22:19;;;;;;;8.20;3.03;;;29.10;45.60;;;;;;5094830;28;20469;-59
2022/08/09 12:24:45;;;;;;;6.90;3.70;;;29.00;46.20;;;;;;5094591;28;20497;-57
2022/08/09 12:27:19;;;;;;;5.10;3.30;;;29.20;46.10;;;;;;5094335;28;20543;-57
2022/08/09 12:29:55;;;;;;;3.90;3.00;;;29.40;46.00;;;;;;5094262;28;20973;-58
2022/08/09 12:32:27;;;;;;;3.33;3.03;;;29.60;45.50;;;;;;5096916;28;20487;-58
2022/08/09 12:34:59;;;;;;;3.27;2.80;;;29.70;45.50;;;;;;5098100;28;20443;-56
2022/08/09 12:37:32;;;;;;;5.23;3.10;;;29.90;45.40;;;;;;5097789;28;20500;-55
2022/08/09 12:40:01;;;;;;;4.47;3.67;;;29.80;45.10;;;;;;5098210;28;20430;-57
2022/08/09 12:42:28;;;;;;;2.50;2.30;;;29.80;45.40;;;;;;5097996;28;20481;-57
2022/08/09 12:44:55;;;;;;;4.00;3.10;;;30.00;45.40;;;;;;5098841;28;20467;-56
2022/08/09 12:47:23;;;;;;;3.73;2.60;;;30.00;45.60;;;;;;5098611;28;20465;-56
2022/08/09 12:52:40;;;;;;;4.10;3.63;;;29.80;45.70;;;;;;5099379;28;20464;-61
2022/08/09 12:55:08;;;;;;;3.70;2.50;;;29.70;46.10;;;;;;5098887;28;20961;-59
2022/08/09 12:57:40;;;;;;;5.87;3.70;;;29.80;45.80;;;;;;5097685;28;20521;-58
2022/08/09 13:00:20;;;;;;;4.77;3.60;;;29.90;45.90;;;;;;5097713;28;20520;-57
2022/08/09 13:02:53;;;;;;;3.00;2.73;;;29.90;45.90;;;;;;5097640;28;20479;-58
2022/08/09 13:05:23;;;;;;;9.37;3.47;;;29.80;45.40;;;;;;5097928;28;20461;-58
2022/08/09 13:08:11;;;;;;;4.27;3.10;;;29.60;45.10;;;;;;5097584;28;20458;-56